Time;durP1;ratioP1;P1;durP2;ratioP2;P2;SDS_P1;SDS_P2;PMS_P1;PMS_P2;Temp;Humidity;BMP_temperature;BMP_pressure;BME280_temperature;BME280_humidity;BME280_pressure;Samples;Min_cycle;Max_cycle;Signal;HPM_P1;HPM_P2
2023/08/11 00:01:07;;;;;;;3.70;1.60;;;15.50;83.40;;;;;;5021621;28;20377;-68
2023/08/11 00:03:32;;;;;;;4.70;1.45;;;15.60;83.50;;;;;;5022335;28;20033;-67
2023/08/11 00:05:58;;;;;;;4.20;1.02;;;15.60;83.30;;;;;;5021376;28;20041;-67
2023/08/11 00:08:24;;;;;;;5.18;1.20;;;15.50;83.90;;;;;;5025173;28;20462;-67
2023/08/11 00:10:49;;;;;;;6.72;1.23;;;15.50;84.40;;;;;;5019467;28;20037;-67
2023/08/11 00:13:15;;;;;;;4.90;1.40;;;15.50;85.60;;;;;;5023741;28;20461;-67
2023/08/11 00:15:40;;;;;;;4.05;1.38;;;15.40;84.80;;;;;;5023371;28;20064;-68
2023/08/11 00:18:09;;;;;;;6.35;1.50;;;15.50;85.10;;;;;;5032737;28;20120;-67
2023/08/11 00:20:34;;;;;;;2.80;1.30;;;15.40;84.70;;;;;;5029704;28;20033;-67
2023/08/11 00:23:00;;;;;;;4.45;1.52;;;15.50;84.80;;;;;;5022895;28;20041;-67
2023/08/11 00:25:25;;;;;;;4.53;1.52;;;15.50;85.20;;;;;;5027630;28;20501;-67
2023/08/11 00:27:51;;;;;;;5.22;1.45;;;15.50;84.80;;;;;;5029055;28;20124;-67
2023/08/11 00:30:16;;;;;;;5.18;1.50;;;15.50;85.20;;;;;;5016858;28;20540;-67
2023/08/11 00:32:42;;;;;;;3.85;1.30;;;15.50;84.80;;;;;;5022590;28;20437;-68
2023/08/11 00:35:07;;;;;;;6.95;1.20;;;15.50;85.30;;;;;;5028819;28;20029;-67
2023/08/11 00:37:33;;;;;;;3.25;1.25;;;15.40;86.00;;;;;;5024155;28;20026;-67
2023/08/11 00:39:59;;;;;;;5.65;1.45;;;15.40;85.60;;;;;;5021113;28;20405;-67
2023/08/11 00:42:25;;;;;;;4.25;1.50;;;15.40;85.30;;;;;;5018711;28;20036;-67
2023/08/11 00:44:51;;;;;;;5.45;1.85;;;15.40;85.60;;;;;;5016187;28;20037;-67
2023/08/11 00:47:16;;;;;;;9.75;1.60;;;15.40;85.30;;;;;;5017538;28;20033;-67
2023/08/11 00:49:43;;;;;;;5.75;1.15;;;15.40;85.70;;;;;;5023230;28;20108;-67
2023/08/11 00:52:09;;;;;;;6.35;1.30;;;15.30;85.20;;;;;;5030869;28;20025;-67
2023/08/11 00:54:36;;;;;;;7.45;1.67;;;15.40;85.10;;;;;;5022907;28;20120;-67
2023/08/11 00:57:02;;;;;;;3.50;1.30;;;15.40;85.00;;;;;;5029638;28;20645;-67
2023/08/11 00:59:28;;;;;;;4.03;1.15;;;15.40;84.90;;;;;;5023111;28;20375;-68
2023/08/11 01:01:53;;;;;;;5.55;1.63;;;15.40;84.60;;;;;;5025423;28;20087;-67
2023/08/11 01:04:20;;;;;;;4.35;1.40;;;15.40;85.30;;;;;;5019985;28;20037;-68
2023/08/11 01:06:49;;;;;;;3.58;1.25;;;15.40;85.40;;;;;;5030360;28;20036;-67
2023/08/11 01:09:43;;;;;;;4.47;1.20;;;15.40;84.90;;;;;;5031488;28;20034;-67
2023/08/11 01:12:30;;;;;;;7.70;1.70;;;15.40;85.00;;;;;;5028483;28;20030;-68
2023/08/11 01:15:06;;;;;;;4.43;1.30;;;15.40;83.90;;;;;;5028809;28;20044;-67
2023/08/11 01:17:33;;;;;;;3.67;1.30;;;15.40;83.70;;;;;;5023461;28;20053;-67
2023/08/11 01:20:00;;;;;;;5.65;1.60;;;15.50;83.80;;;;;;5027374;28;20083;-67
2023/08/11 01:22:30;;;;;;;6.00;1.45;;;15.40;83.90;;;;;;5022645;28;20054;-67
2023/08/11 01:24:56;;;;;;;7.30;1.30;;;15.50;83.30;;;;;;5022808;28;20049;-67
2023/08/11 01:27:22;;;;;;;5.35;1.30;;;15.50;83.40;;;;;;5028318;28;20051;-67
2023/08/11 01:29:47;;;;;;;4.57;1.60;;;15.50;82.90;;;;;;5028073;28;20032;-67
2023/08/11 01:32:12;;;;;;;5.82;1.38;;;15.50;83.40;;;;;;5029729;28;20121;-67
2023/08/11 01:34:38;;;;;;;4.15;1.33;;;15.50;83.60;;;;;;5017109;28;20036;-68
2023/08/11 01:37:03;;;;;;;4.18;1.48;;;15.60;83.80;;;;;;5028332;28;20045;-67
2023/08/11 01:39:30;;;;;;;4.75;1.55;;;15.60;84.40;;;;;;5027012;28;20029;-67
2023/08/11 01:41:56;;;;;;;7.50;1.20;;;15.50;83.50;;;;;;5027258;28;20032;-68
2023/08/11 01:44:22;;;;;;;4.55;1.35;;;15.60;84.50;;;;;;5024886;28;20030;-68
2023/08/11 01:46:50;;;;;;;4.60;1.55;;;15.60;84.10;;;;;;5016730;28;20403;-67
2023/08/11 01:49:17;;;;;;;6.82;1.38;;;15.60;83.80;;;;;;5026733;28;20512;-67
2023/08/11 01:51:43;;;;;;;3.70;1.38;;;15.60;84.00;;;;;;5030292;28;20723;-67
2023/08/11 01:54:09;;;;;;;3.28;1.50;;;15.60;84.00;;;;;;5026760;28;20029;-67
2023/08/11 01:56:39;;;;;;;7.97;1.65;;;15.60;84.20;;;;;;5025734;28;20036;-68
2023/08/11 01:59:11;;;;;;;4.53;1.23;;;15.70;84.60;;;;;;5032642;28;20037;-67
2023/08/11 02:01:38;;;;;;;7.60;1.98;;;15.70;85.00;;;;;;5022010;28;20029;-67
2023/08/11 02:04:04;;;;;;;7.10;2.00;;;15.70;85.10;;;;;;5028332;28;20030;-67
2023/08/11 02:06:30;;;;;;;7.45;2.10;;;15.70;85.40;;;;;;5026993;28;20057;-67
2023/08/11 02:08:56;;;;;;;6.40;2.13;;;15.70;85.50;;;;;;5027661;28;20439;-67
2023/08/11 02:11:22;;;;;;;5.72;1.80;;;15.70;85.30;;;;;;5022397;28;20033;-67
2023/08/11 02:13:48;;;;;;;6.25;1.90;;;15.80;85.90;;;;;;5036686;28;20033;-68
2023/08/11 02:16:13;;;;;;;5.57;2.08;;;15.80;85.90;;;;;;5027841;28;20041;-67
2023/08/11 02:18:39;;;;;;;10.75;2.10;;;15.70;86.30;;;;;;5025655;28;20025;-67
2023/08/11 02:21:06;;;;;;;5.25;1.80;;;15.70;86.00;;;;;;5032921;28;20591;-68
2023/08/11 02:23:32;;;;;;;11.40;2.25;;;15.70;86.40;;;;;;5032512;28;20120;-67
2023/08/11 02:25:57;;;;;;;9.55;2.10;;;15.70;86.60;;;;;;5033365;28;20481;-67
2023/08/11 02:28:23;;;;;;;6.85;2.35;;;15.70;86.40;;;;;;5028439;28;20526;-67
2023/08/11 02:30:48;;;;;;;8.60;2.08;;;15.70;87.20;;;;;;5021541;28;20029;-67
2023/08/11 02:33:18;;;;;;;5.43;1.88;;;15.70;87.30;;;;;;5029976;28;20040;-67
2023/08/11 02:35:44;;;;;;;4.72;2.03;;;15.70;87.30;;;;;;5029402;28;20025;-67
2023/08/11 02:38:09;;;;;;;6.50;2.08;;;15.70;87.50;;;;;;5027444;28;20037;-68
2023/08/11 02:40:35;;;;;;;6.53;2.10;;;15.70;87.70;;;;;;5028758;28;20033;-67
2023/08/11 02:43:02;;;;;;;4.38;1.92;;;15.70;87.50;;;;;;5033851;28;20055;-68
2023/08/11 02:45:27;;;;;;;6.32;2.45;;;15.70;87.40;;;;;;5021134;28;20028;-67
2023/08/11 02:47:53;;;;;;;8.38;2.15;;;15.60;87.50;;;;;;5026987;28;20041;-67
2023/08/11 02:50:18;;;;;;;6.95;2.55;;;15.60;87.50;;;;;;5029020;28;20037;-67
2023/08/11 02:52:44;;;;;;;6.10;2.47;;;15.70;87.50;;;;;;5022930;28;20116;-68
2023/08/11 02:55:11;;;;;;;7.60;2.50;;;15.70;87.70;;;;;;5030315;28;20049;-67
2023/08/11 02:57:37;;;;;;;13.98;2.78;;;15.70;87.70;;;;;;5027379;28;20037;-67
2023/08/11 03:00:09;;;;;;;8.95;2.47;;;15.70;87.20;;;;;;5040776;28;20369;-68
2023/08/11 03:02:35;;;;;;;8.07;2.30;;;15.60;87.40;;;;;;5023040;28;20062;-67
2023/08/11 03:05:01;;;;;;;5.35;1.92;;;15.70;87.40;;;;;;5046497;28;20120;-67
2023/08/11 03:07:26;;;;;;;9.07;2.30;;;15.70;87.80;;;;;;5041543;28;20037;-68
2023/08/11 03:09:52;;;;;;;6.65;2.30;;;15.70;88.20;;;;;;5026519;28;20512;-67
2023/08/11 03:12:17;;;;;;;19.05;1.92;;;15.60;87.80;;;;;;5030449;28;20079;-67
2023/08/11 03:14:42;;;;;;;7.53;2.42;;;15.60;87.80;;;;;;5037142;28;20032;-67
2023/08/11 03:17:10;;;;;;;4.72;2.05;;;15.70;87.80;;;;;;5030790;28;20030;-68
2023/08/11 03:19:35;;;;;;;9.57;2.22;;;15.60;87.70;;;;;;5026736;28;20030;-67
2023/08/11 03:22:01;;;;;;;8.30;2.30;;;15.70;87.90;;;;;;5022718;28;20041;-67
2023/08/11 03:24:26;;;;;;;6.45;2.38;;;15.70;88.00;;;;;;5028068;28;20057;-68
2023/08/11 03:26:52;;;;;;;6.63;2.80;;;15.70;88.10;;;;;;5041048;28;20043;-67
2023/08/11 03:29:18;;;;;;;9.70;2.40;;;15.70;88.00;;;;;;5026023;28;20397;-67
2023/08/11 03:31:43;;;;;;;10.63;2.42;;;15.60;88.10;;;;;;5027402;28;20471;-67
2023/08/11 03:34:08;;;;;;;6.75;2.17;;;15.70;88.10;;;;;;5018610;28;20091;-67
2023/08/11 03:36:35;;;;;;;12.20;2.40;;;15.70;88.20;;;;;;5032260;28;20379;-67
2023/08/11 03:39:01;;;;;;;8.23;2.42;;;15.70;88.30;;;;;;5025418;28;20029;-67
2023/08/11 03:41:27;;;;;;;5.15;2.20;;;15.70;88.30;;;;;;5034133;28;20121;-68
2023/08/11 03:43:52;;;;;;;9.32;2.33;;;15.70;88.40;;;;;;5034134;28;20116;-67
2023/08/11 03:46:18;;;;;;;6.65;2.47;;;15.70;88.40;;;;;;5036092;28;20462;-67
2023/08/11 03:48:43;;;;;;;5.38;2.38;;;15.70;88.20;;;;;;5021866;28;20030;-67
2023/08/11 03:51:09;;;;;;;7.00;2.53;;;15.70;88.10;;;;;;5025636;28;20103;-67
2023/08/11 03:53:36;;;;;;;8.43;2.60;;;15.70;88.20;;;;;;5022107;28;20039;-67
2023/08/11 03:56:02;;;;;;;9.43;2.60;;;15.70;88.30;;;;;;5038135;28;20021;-67
2023/08/11 03:58:28;;;;;;;4.85;2.22;;;15.70;88.30;;;;;;5019700;28;20080;-67
2023/08/11 04:00:54;;;;;;;7.93;2.85;;;15.70;88.40;;;;;;5024146;28;20444;-68
2023/08/11 04:03:22;;;;;;;6.80;2.50;;;15.70;88.40;;;;;;5029293;28;20120;-67
2023/08/11 04:05:47;;;;;;;7.68;2.70;;;15.80;88.50;;;;;;5031623;28;20503;-67
2023/08/11 04:08:13;;;;;;;7.25;2.40;;;15.80;88.60;;;;;;5024541;28;20065;-68
2023/08/11 04:10:38;;;;;;;10.40;2.55;;;15.80;88.60;;;;;;5017349;28;20030;-67
2023/08/11 04:13:04;;;;;;;7.95;2.33;;;15.70;88.60;;;;;;5029087;28;20037;-67
2023/08/11 04:15:31;;;;;;;6.35;2.40;;;15.80;88.80;;;;;;5026516;28;20269;-67
2023/08/11 04:17:57;;;;;;;5.05;2.60;;;15.80;88.70;;;;;;5028624;28;20028;-67
2023/08/11 04:20:22;;;;;;;9.02;2.53;;;15.80;88.70;;;;;;5021696;28;20029;-67
2023/08/11 04:22:48;;;;;;;12.00;2.58;;;15.80;88.70;;;;;;5023353;28;20029;-68
2023/08/11 04:25:13;;;;;;;7.20;2.53;;;15.80;88.70;;;;;;5026950;28;20053;-67
2023/08/11 04:27:39;;;;;;;5.50;2.70;;;15.80;88.70;;;;;;5029990;28;20029;-66
2023/08/11 04:30:06;;;;;;;9.38;2.42;;;15.80;88.70;;;;;;5022899;28;20031;-67
2023/08/11 04:32:32;;;;;;;6.00;2.42;;;15.80;88.80;;;;;;5023911;28;20080;-66
2023/08/11 04:34:58;;;;;;;7.15;2.58;;;15.90;88.60;;;;;;5025022;28;20045;-67
2023/08/11 04:37:23;;;;;;;6.63;2.80;;;15.90;88.60;;;;;;5022054;28;20044;-67
2023/08/11 04:39:49;;;;;;;9.82;2.78;;;15.90;88.60;;;;;;5018062;28;20040;-66
2023/08/11 04:42:15;;;;;;;8.48;2.63;;;15.90;88.70;;;;;;5023978;28;20117;-66
2023/08/11 04:44:40;;;;;;;6.53;2.80;;;15.90;88.70;;;;;;5022108;28;20037;-67
2023/08/11 04:47:06;;;;;;;7.85;2.65;;;16.00;88.50;;;;;;5022328;28;20477;-66
2023/08/11 04:49:35;;;;;;;7.90;2.70;;;16.00;88.70;;;;;;5024339;28;20033;-66
2023/08/11 04:52:00;;;;;;;8.52;2.55;;;16.00;88.50;;;;;;5022300;28;20033;-66
2023/08/11 04:54:27;;;;;;;8.13;2.97;;;16.00;88.40;;;;;;5024202;28;20033;-68
2023/08/11 04:56:52;;;;;;;9.15;2.50;;;16.00;88.50;;;;;;5025471;28;20032;-68
2023/08/11 04:59:18;;;;;;;8.63;2.38;;;16.00;88.40;;;;;;5025932;28;20382;-68
2023/08/11 05:01:43;;;;;;;8.15;2.40;;;16.10;88.20;;;;;;5030152;28;20109;-67
2023/08/11 05:04:09;;;;;;;8.85;2.50;;;16.10;88.10;;;;;;5030473;28;20039;-67
2023/08/11 05:06:35;;;;;;;5.22;2.35;;;16.10;88.00;;;;;;5026778;28;20040;-67
2023/08/11 05:09:02;;;;;;;4.50;1.90;;;16.10;87.90;;;;;;5019841;28;20035;-68
2023/08/11 05:11:28;;;;;;;5.65;1.92;;;16.20;88.10;;;;;;5028634;28;20769;-68
2023/08/11 05:13:54;;;;;;;10.27;2.53;;;16.10;88.00;;;;;;5024592;28;20025;-67
2023/08/11 05:16:20;;;;;;;7.65;2.78;;;16.20;88.40;;;;;;5031463;28;20037;-67
2023/08/11 05:18:45;;;;;;;9.07;2.35;;;16.20;87.40;;;;;;5026837;28;20064;-67
2023/08/11 05:21:13;;;;;;;4.00;1.80;;;16.30;87.40;;;;;;5018518;28;20030;-67
2023/08/11 05:23:38;;;;;;;4.28;2.33;;;16.30;87.40;;;;;;5023503;28;20036;-69
2023/08/11 05:26:04;;;;;;;6.75;2.85;;;16.40;87.50;;;;;;5030165;28;20395;-67
2023/08/11 05:28:30;;;;;;;9.40;2.22;;;16.30;87.20;;;;;;5030232;28;20037;-67
2023/08/11 05:30:56;;;;;;;6.28;2.00;;;16.30;87.10;;;;;;5016776;28;20482;-67
2023/08/11 05:33:27;;;;;;;4.55;1.83;;;16.40;87.20;;;;;;5022750;28;20389;-67
2023/08/11 05:35:53;;;;;;;8.15;2.65;;;16.40;87.30;;;;;;5022466;28;20485;-67
2023/08/11 05:38:22;;;;;;;5.50;2.28;;;16.50;87.10;;;;;;5028885;28;20034;-65
2023/08/11 05:40:48;;;;;;;11.18;2.35;;;16.50;87.30;;;;;;5028231;28;20442;-66
2023/08/11 05:43:14;;;;;;;5.00;2.45;;;16.50;87.10;;;;;;5038196;28;20377;-66
2023/08/11 05:45:40;;;;;;;7.68;1.90;;;16.50;87.30;;;;;;5028690;28;20038;-66
2023/08/11 05:48:06;;;;;;;6.47;2.33;;;16.50;87.00;;;;;;5036648;28;20039;-67
2023/08/11 05:50:31;;;;;;;12.05;2.55;;;16.60;87.10;;;;;;5027579;28;20055;-66
2023/08/11 05:52:57;;;;;;;6.60;2.20;;;16.60;86.80;;;;;;5021938;28;20474;-67
2023/08/11 05:55:23;;;;;;;8.90;2.40;;;16.60;87.00;;;;;;5036647;28;20040;-67
2023/08/11 05:57:49;;;;;;;6.07;2.80;;;16.70;86.50;;;;;;5030114;28;20126;-66
2023/08/11 06:00:17;;;;;;;7.25;2.22;;;16.70;86.70;;;;;;5026610;28;20036;-66
2023/08/11 06:02:43;;;;;;;8.65;2.45;;;16.70;86.60;;;;;;5030686;28;20022;-67
2023/08/11 06:05:08;;;;;;;6.57;2.58;;;16.80;86.30;;;;;;5025177;28;20041;-67
2023/08/11 06:07:34;;;;;;;7.65;2.42;;;16.80;86.40;;;;;;5024606;28;20029;-67
2023/08/11 06:09:59;;;;;;;7.93;2.65;;;17.00;86.90;;;;;;5033012;28;20117;-67
2023/08/11 06:12:25;;;;;;;6.03;2.08;;;17.00;86.50;;;;;;5036922;28;20038;-66
2023/08/11 06:14:50;;;;;;;5.50;2.13;;;17.00;86.30;;;;;;5034453;28;20090;-67
2023/08/11 06:17:16;;;;;;;5.05;2.17;;;17.10;86.70;;;;;;5036363;28;20025;-67
2023/08/11 06:19:41;;;;;;;8.57;2.67;;;17.10;86.40;;;;;;5034259;28;20036;-67
2023/08/11 06:22:07;;;;;;;7.28;2.67;;;17.20;86.30;;;;;;5029461;28;20044;-68
2023/08/11 06:24:33;;;;;;;7.80;2.42;;;17.20;86.50;;;;;;5029056;28;20417;-67
2023/08/11 06:26:59;;;;;;;5.07;2.30;;;17.20;85.90;;;;;;5028381;28;20025;-67
2023/08/11 06:29:24;;;;;;;9.70;2.90;;;17.30;85.90;;;;;;5026378;28;20033;-67
2023/08/11 06:31:50;;;;;;;5.88;2.40;;;17.40;86.20;;;;;;5018564;28;20040;-67
2023/08/11 06:34:17;;;;;;;4.85;2.53;;;17.40;85.90;;;;;;5017816;28;20031;-67
2023/08/11 06:36:44;;;;;;;5.97;2.10;;;17.50;86.10;;;;;;5032524;28;20024;-67
2023/08/11 06:39:10;;;;;;;6.63;2.30;;;17.60;85.60;;;;;;5025236;28;20030;-67
2023/08/11 06:41:36;;;;;;;7.65;2.65;;;17.70;85.70;;;;;;5017710;28;20030;-67
2023/08/11 06:44:01;;;;;;;5.95;2.45;;;17.90;85.50;;;;;;5024244;28;20480;-67
2023/08/11 06:46:26;;;;;;;5.20;2.20;;;18.00;85.70;;;;;;5031068;28;20030;-67
2023/08/11 06:48:52;;;;;;;8.40;2.35;;;18.00;85.20;;;;;;5021692;28;20036;-68
2023/08/11 06:51:17;;;;;;;4.15;2.25;;;18.10;85.10;;;;;;5024860;28;20036;-67
2023/08/11 06:53:43;;;;;;;8.32;2.60;;;18.00;84.50;;;;;;5025031;28;20472;-67
2023/08/11 06:56:08;;;;;;;8.00;2.20;;;18.20;85.10;;;;;;5028483;28;20040;-67
2023/08/11 06:58:34;;;;;;;6.75;2.40;;;18.40;84.70;;;;;;5023432;28;20099;-67
2023/08/11 07:00:59;;;;;;;7.72;2.40;;;18.50;84.60;;;;;;5019089;28;20461;-67
2023/08/11 07:03:25;;;;;;;8.93;2.40;;;18.50;83.70;;;;;;5029117;28;20036;-67
2023/08/11 07:05:51;;;;;;;7.07;2.95;;;18.60;83.70;;;;;;5030339;28;20470;-68
2023/08/11 07:08:18;;;;;;;4.97;2.38;;;18.60;83.70;;;;;;5018616;28;20038;-68
2023/08/11 07:10:43;;;;;;;6.03;2.40;;;18.80;84.50;;;;;;5027309;28;20069;-67
2023/08/11 07:13:09;;;;;;;3.40;2.35;;;18.70;83.10;;;;;;5026088;28;20441;-67
2023/08/11 07:15:34;;;;;;;4.90;2.35;;;18.90;83.70;;;;;;5020245;28;20026;-67
2023/08/11 07:18:00;;;;;;;4.38;2.03;;;19.00;83.50;;;;;;5025262;28;20112;-67
2023/08/11 07:20:25;;;;;;;7.80;2.20;;;19.10;82.90;;;;;;5029764;28;20038;-67
2023/08/11 07:22:51;;;;;;;7.93;2.08;;;19.10;82.40;;;;;;5021885;28;20075;-67
2023/08/11 07:25:16;;;;;;;7.43;2.28;;;19.30;82.70;;;;;;5022393;28;20380;-67
2023/08/11 07:27:42;;;;;;;5.47;2.28;;;19.30;82.30;;;;;;5026442;28;20490;-67
2023/08/11 07:30:09;;;;;;;7.05;2.10;;;19.50;82.60;;;;;;5029009;28;20033;-67
2023/08/11 07:32:35;;;;;;;5.63;2.63;;;19.50;82.30;;;;;;5027689;28;20051;-67
2023/08/11 07:35:00;;;;;;;8.55;2.70;;;19.60;82.30;;;;;;5029293;28;20337;-67
2023/08/11 07:37:26;;;;;;;3.65;1.98;;;19.70;81.70;;;;;;5027339;28;20545;-68
2023/08/11 07:39:51;;;;;;;6.97;2.10;;;19.80;81.70;;;;;;4985505;28;20049;-67
2023/08/11 07:42:17;;;;;;;5.40;2.10;;;19.90;81.30;;;;;;5034076;28;20068;-67
2023/08/11 07:44:43;;;;;;;5.65;2.35;;;20.00;81.20;;;;;;5022934;28;20034;-67
2023/08/11 07:47:08;;;;;;;4.10;2.33;;;20.20;81.10;;;;;;5024984;28;20049;-67
2023/08/11 07:49:34;;;;;;;5.38;2.00;;;20.30;79.90;;;;;;5024070;28;20096;-67
2023/08/11 07:51:59;;;;;;;5.55;2.33;;;20.50;80.90;;;;;;5023637;28;20029;-67
2023/08/11 07:54:25;;;;;;;5.78;2.47;;;20.60;80.90;;;;;;5025491;28;20508;-67
2023/08/11 07:56:51;;;;;;;4.00;2.03;;;20.50;78.80;;;;;;5017600;28;20083;-67
2023/08/11 07:59:16;;;;;;;5.32;2.13;;;20.60;79.90;;;;;;5023650;28;20123;-67
2023/08/11 08:01:42;;;;;;;4.93;2.40;;;20.70;79.30;;;;;;5022874;28;20025;-67
2023/08/11 08:04:07;;;;;;;4.05;1.95;;;20.50;78.90;;;;;;5019588;28;20025;-67
2023/08/11 08:06:36;;;;;;;6.22;2.10;;;20.60;80.30;;;;;;5031868;28;20514;-67
2023/08/11 08:09:02;;;;;;;5.18;2.00;;;20.50;78.70;;;;;;5018848;28;20113;-67
2023/08/11 08:11:28;;;;;;;5.97;2.00;;;20.50;78.30;;;;;;5024539;28;20030;-67
2023/08/11 08:13:53;;;;;;;4.30;1.80;;;20.70;79.40;;;;;;5023888;28;20373;-67
2023/08/11 08:16:19;;;;;;;6.80;1.90;;;20.80;79.40;;;;;;5013382;28;20033;-67
2023/08/11 08:18:44;;;;;;;4.38;1.90;;;20.80;78.70;;;;;;5021503;28;20126;-67
2023/08/11 08:21:11;;;;;;;7.10;2.03;;;21.00;79.30;;;;;;5018078;28;20040;-67
2023/08/11 08:23:37;;;;;;;8.40;1.98;;;21.30;78.10;;;;;;5022700;28;20472;-67
2023/08/11 08:26:03;;;;;;;5.70;1.80;;;21.30;78.10;;;;;;5023309;28;20040;-67
2023/08/11 08:28:28;;;;;;;6.82;2.00;;;21.50;77.90;;;;;;5020947;28;20020;-67
2023/08/11 08:30:54;;;;;;;4.03;1.88;;;21.60;77.50;;;;;;5014790;28;20486;-68
2023/08/11 08:33:20;;;;;;;4.75;1.77;;;21.90;76.50;;;;;;5018168;28;20025;-68
2023/08/11 08:35:46;;;;;;;4.43;1.88;;;21.80;76.00;;;;;;5022207;28;20120;-68
2023/08/11 08:38:11;;;;;;;7.50;2.38;;;22.00;77.20;;;;;;5020757;28;20049;-68
2023/08/11 08:40:37;;;;;;;3.10;1.40;;;22.20;76.70;;;;;;5023892;28;20358;-68
2023/08/11 08:43:03;;;;;;;4.15;1.63;;;22.30;76.10;;;;;;5026079;28;20030;-68
2023/08/11 08:45:30;;;;;;;4.50;1.67;;;22.50;74.20;;;;;;5022692;28;20022;-68
2023/08/11 08:47:57;;;;;;;4.55;1.60;;;22.70;74.00;;;;;;5020785;28;20044;-67
2023/08/11 08:50:24;;;;;;;6.68;1.42;;;22.60;72.60;;;;;;4986964;28;20029;-68
2023/08/11 08:52:51;;;;;;;4.25;1.50;;;22.90;73.20;;;;;;5017491;28;20071;-68
2023/08/11 08:55:18;;;;;;;5.55;1.42;;;23.00;73.20;;;;;;5021807;28;20034;-68
2023/08/11 08:57:46;;;;;;;4.57;1.38;;;23.00;73.60;;;;;;5016712;28;20033;-68
2023/08/11 09:00:12;;;;;;;4.95;1.25;;;23.00;72.20;;;;;;5009655;28;20026;-67
2023/08/11 09:02:38;;;;;;;4.68;1.77;;;23.10;71.20;;;;;;5025584;28;20066;-67
2023/08/11 09:05:04;;;;;;;2.97;1.30;;;23.00;70.30;;;;;;5026581;28;20064;-67
2023/08/11 09:07:30;;;;;;;3.00;1.30;;;22.90;70.90;;;;;;5035217;28;20607;-68
2023/08/11 09:09:55;;;;;;;2.60;1.30;;;22.90;71.30;;;;;;5035242;28;20160;-68
2023/08/11 09:12:21;;;;;;;4.25;1.48;;;22.90;70.40;;;;;;5028867;28;20063;-68
2023/08/11 09:14:46;;;;;;;3.60;1.15;;;23.00;70.20;;;;;;5024456;28;20108;-67
2023/08/11 09:17:12;;;;;;;4.10;1.50;;;23.30;70.70;;;;;;5030669;28;20032;-67
2023/08/11 09:19:41;;;;;;;2.50;1.08;;;23.00;69.90;;;;;;5049903;28;20032;-68
2023/08/11 09:22:10;;;;;;;3.38;1.27;;;23.30;69.30;;;;;;5025814;28;20033;-68
2023/08/11 09:24:37;;;;;;;1.88;1.00;;;23.50;69.80;;;;;;5031012;28;20044;-67
2023/08/11 09:27:03;;;;;;;4.63;1.20;;;23.50;70.40;;;;;;5034205;28;20032;-67
2023/08/11 09:29:29;;;;;;;2.55;1.20;;;23.70;69.60;;;;;;5028721;28;20373;-67
2023/08/11 09:31:55;;;;;;;2.92;1.25;;;23.90;68.20;;;;;;5032229;28;20040;-67
2023/08/11 09:34:20;;;;;;;2.60;0.98;;;24.00;70.30;;;;;;5019858;28;20208;-67
2023/08/11 09:36:48;;;;;;;3.53;1.08;;;24.00;69.00;;;;;;5030625;28;20037;-67
2023/08/11 09:39:14;;;;;;;1.55;1.00;;;24.10;68.30;;;;;;5023201;28;20021;-68
2023/08/11 09:41:48;;;;;;;4.78;1.20;;;24.20;66.20;;;;;;5024188;28;20040;-68
2023/08/11 09:44:21;;;;;;;3.53;1.00;;;24.10;67.70;;;;;;5022597;28;20032;-67
2023/08/11 09:46:47;;;;;;;1.67;0.80;;;24.30;66.60;;;;;;5024069;28;20025;-68
2023/08/11 09:49:13;;;;;;;1.85;1.02;;;24.50;65.80;;;;;;5029761;28;20369;-68
2023/08/11 09:51:40;;;;;;;2.80;1.25;;;24.70;66.60;;;;;;5005854;28;20049;-68
2023/08/11 09:54:08;;;;;;;1.48;1.05;;;24.60;65.80;;;;;;5023025;28;20052;-67
2023/08/11 09:56:39;;;;;;;2.15;0.93;;;24.90;66.60;;;;;;5036783;28;20068;-68
2023/08/11 09:59:06;;;;;;;1.67;1.00;;;24.70;64.30;;;;;;5026732;28;20033;-67
2023/08/11 10:01:36;;;;;;;2.10;0.85;;;25.00;65.60;;;;;;5028087;28;20388;-68
2023/08/11 10:04:10;;;;;;;1.03;0.70;;;25.00;63.10;;;;;;5031533;28;20040;-67
2023/08/11 10:06:38;;;;;;;1.88;0.80;;;25.00;64.40;;;;;;5029784;28;20145;-67
2023/08/11 10:09:06;;;;;;;1.58;0.80;;;25.50;63.00;;;;;;5026869;28;20206;-67
2023/08/11 10:11:34;;;;;;;2.05;0.40;;;25.40;59.30;;;;;;5028828;28;20361;-67
2023/08/11 10:14:03;;;;;;;1.63;0.60;;;24.90;61.10;;;;;;5038390;28;20326;-68
2023/08/11 10:16:28;;;;;;;1.58;0.70;;;24.90;61.60;;;;;;5024365;28;20052;-67
2023/08/11 10:18:55;;;;;;;2.35;0.63;;;24.70;63.30;;;;;;5025312;28;20101;-68
2023/08/11 10:21:21;;;;;;;1.42;0.70;;;25.10;60.60;;;;;;5032560;28;20078;-68
2023/08/11 10:23:47;;;;;;;2.03;0.75;;;25.50;62.50;;;;;;5033469;28;20069;-68
2023/08/11 10:26:13;;;;;;;1.92;0.93;;;25.00;60.50;;;;;;5020987;28;20445;-67
2023/08/11 10:28:39;;;;;;;1.40;0.73;;;25.20;62.40;;;;;;5026368;28;20101;-68
2023/08/11 10:31:05;;;;;;;1.25;0.80;;;25.10;61.50;;;;;;5023576;28;20060;-68
2023/08/11 10:33:31;;;;;;;2.15;0.77;;;25.00;62.70;;;;;;5032044;28;20038;-67
2023/08/11 10:35:59;;;;;;;1.38;0.77;;;25.00;62.00;;;;;;5025868;28;20042;-68
2023/08/11 10:38:26;;;;;;;1.08;0.70;;;25.40;65.00;;;;;;5020388;28;20125;-68
2023/08/11 10:41:00;;;;;;;3.17;0.80;;;25.50;62.40;;;;;;5024801;28;20113;-68
2023/08/11 10:43:42;;;;;;;2.17;0.80;;;25.50;61.70;;;;;;5021177;28;20464;-67
2023/08/11 10:46:23;;;;;;;3.47;0.80;;;26.00;63.10;;;;;;5014653;28;20029;-68
2023/08/11 10:48:54;;;;;;;2.92;0.88;;;26.50;60.40;;;;;;5017106;28;20029;-68
2023/08/11 10:51:27;;;;;;;2.33;0.90;;;26.10;59.00;;;;;;5012853;28;20052;-68
2023/08/11 10:53:59;;;;;;;1.23;0.73;;;25.90;58.80;;;;;;5024705;28;20076;-68
2023/08/11 10:56:33;;;;;;;1.90;0.75;;;25.50;63.10;;;;;;5023809;28;20044;-67
2023/08/11 10:59:15;;;;;;;2.55;0.70;;;26.00;61.60;;;;;;5016714;28;20017;-68
2023/08/11 11:01:43;;;;;;;1.58;1.00;;;25.90;60.60;;;;;;5028498;28;20021;-68
2023/08/11 11:04:09;;;;;;;2.90;0.93;;;26.10;59.00;;;;;;5020825;28;20404;-68
2023/08/11 11:06:35;;;;;;;2.72;0.75;;;26.70;60.80;;;;;;5017022;28;20022;-68
2023/08/11 11:09:03;;;;;;;3.20;1.02;;;26.90;55.40;;;;;;5025039;28;20038;-68
2023/08/11 11:11:30;;;;;;;3.05;0.85;;;26.20;58.40;;;;;;5017922;28;20132;-68
2023/08/11 11:13:56;;;;;;;1.30;0.80;;;25.60;58.60;;;;;;5015589;28;20029;-69
2023/08/11 11:16:22;;;;;;;2.80;0.63;;;25.30;59.40;;;;;;5020934;28;20037;-68
2023/08/11 11:18:48;;;;;;;0.70;0.70;;;25.30;60.30;;;;;;5024297;28;20366;-68
2023/08/11 11:21:14;;;;;;;1.98;0.82;;;25.80;59.90;;;;;;5031751;28;20017;-69
2023/08/11 11:23:50;;;;;;;1.25;0.60;;;26.30;59.70;;;;;;5022982;28;20037;-68
2023/08/11 11:26:27;;;;;;;1.40;0.70;;;26.00;60.20;;;;;;5031785;28;20497;-69
2023/08/11 11:28:54;;;;;;;2.67;0.95;;;26.30;60.60;;;;;;5022585;28;20030;-68
2023/08/11 11:31:21;;;;;;;2.38;0.90;;;26.50;57.40;;;;;;5023480;28;20029;-70
2023/08/11 11:33:48;;;;;;;1.60;0.80;;;25.90;58.40;;;;;;5025222;28;20517;-69
2023/08/11 11:36:15;;;;;;;2.97;0.95;;;25.70;59.70;;;;;;5026114;28;20113;-70
2023/08/11 11:38:41;;;;;;;2.55;0.90;;;26.20;59.50;;;;;;5020457;28;20034;-69
2023/08/11 11:41:11;;;;;;;1.42;0.70;;;26.90;59.60;;;;;;5019225;28;20414;-67
2023/08/11 11:43:37;;;;;;;1.05;0.75;;;27.30;57.50;;;;;;5014345;28;20040;-67
2023/08/11 11:46:04;;;;;;;1.83;0.73;;;27.70;57.40;;;;;;5022537;28;20030;-75
2023/08/11 11:48:30;;;;;;;2.28;0.90;;;27.80;55.30;;;;;;5025688;28;20034;-74
2023/08/11 11:50:56;;;;;;;1.77;0.82;;;27.30;55.70;;;;;;5010334;28;20114;-68
2023/08/11 11:53:22;;;;;;;2.25;0.90;;;26.80;55.70;;;;;;5023997;28;20183;-68
2023/08/11 11:55:51;;;;;;;1.83;1.00;;;27.60;54.70;;;;;;5026499;28;20029;-69
2023/08/11 11:58:17;;;;;;;1.70;0.75;;;27.60;55.80;;;;;;5019042;28;20069;-68
2023/08/11 12:00:45;;;;;;;2.97;0.90;;;27.80;55.10;;;;;;5024507;28;20033;-68
2023/08/11 12:03:11;;;;;;;4.53;0.88;;;28.20;54.60;;;;;;5028908;28;20167;-68
2023/08/11 12:05:37;;;;;;;4.03;1.00;;;28.30;55.90;;;;;;5026404;28;20521;-68
2023/08/11 12:08:23;;;;;;;1.33;1.00;;;28.00;53.40;;;;;;5022934;28;20484;-68
2023/08/11 12:10:49;;;;;;;1.92;0.73;;;27.50;55.10;;;;;;5019792;28;20044;-71
2023/08/11 12:13:16;;;;;;;4.00;1.05;;;28.00;55.00;;;;;;5018912;28;20029;-69
2023/08/11 12:15:41;;;;;;;1.35;0.85;;;28.70;53.40;;;;;;5017963;28;20387;-71
2023/08/11 12:18:07;;;;;;;1.02;0.80;;;29.10;54.90;;;;;;5018044;28;20022;-68
2023/08/11 12:20:35;;;;;;;3.58;0.98;;;29.60;53.50;;;;;;5024678;28;20497;-69
2023/08/11 12:23:01;;;;;;;2.05;0.95;;;29.50;51.20;;;;;;5027982;28;20033;-69
2023/08/11 12:25:26;;;;;;;3.35;1.10;;;29.70;51.30;;;;;;5019478;28;20095;-68
2023/08/11 12:27:55;;;;;;;0.80;0.70;;;29.50;49.70;;;;;;5016817;28;20508;-68
2023/08/11 12:30:21;;;;;;;1.33;0.80;;;29.60;52.80;;;;;;5023755;28;20041;-68
2023/08/11 12:32:47;;;;;;;2.78;0.70;;;29.50;52.00;;;;;;5019995;28;20029;-69
2023/08/11 12:35:13;;;;;;;3.10;0.90;;;29.90;51.30;;;;;;5025230;28;20065;-67
2023/08/11 12:37:38;;;;;;;2.20;0.80;;;29.60;50.60;;;;;;5024069;28;20064;-69
2023/08/11 12:40:09;;;;;;;1.58;0.63;;;29.90;49.60;;;;;;5022486;28;20040;-68
2023/08/11 12:42:38;;;;;;;3.70;0.80;;;29.80;50.80;;;;;;5017192;28;20112;-69